Time;durP1;ratioP1;P1;durP2;ratioP2;P2;SDS_P1;SDS_P2;PMS_P1;PMS_P2;Temp;Humidity;BMP_temperature;BMP_pressure;BME280_temperature;BME280_humidity;BME280_pressure;Samples;Min_cycle;Max_cycle;Signal;HPM_P1;HPM_P2
2023/04/30 00:01:26;;;;;;;24.30;6.65;;;;;;;;;;5085459;28;20509;-46
2023/04/30 00:03:53;;;;;;;33.17;6.30;;;;;;;;;;5086922;28;20039;-48
2023/04/30 00:06:20;;;;;;;29.27;6.40;;;;;;;;;;5085981;28;20039;-46
2023/04/30 00:08:47;;;;;;;25.67;7.03;;;;;;;;;;5090198;28;20809;-45
2023/04/30 00:11:14;;;;;;;28.80;7.20;;;;;;;;;;5086788;28;20036;-47
2023/04/30 00:13:42;;;;;;;25.50;5.85;;;;;;;;;;5090968;28;20035;-48
2023/04/30 00:16:10;;;;;;;30.60;6.38;;;;;;;;;;5083259;28;20031;-51
2023/04/30 00:18:37;;;;;;;40.22;8.00;;;;;;;;;;5090150;28;20047;-48
2023/04/30 00:21:04;;;;;;;40.38;7.07;;;;;;;;;;5087527;28;20040;-47
2023/04/30 00:23:31;;;;;;;28.90;6.43;;;;;;;;;;5064309;28;20036;-47
2023/04/30 00:25:58;;;;;;;29.95;7.30;;;;;;;;;;5089575;28;20509;-48
2023/04/30 00:28:26;;;;;;;30.67;7.38;;;;;;;;;;5089386;28;20055;-50
2023/04/30 00:30:53;;;;;;;28.83;6.30;;;;;;;;;;5090459;28;20106;-47
2023/04/30 00:33:20;;;;;;;30.10;7.00;;;;;;;;;;5088240;28;20347;-51
2023/04/30 00:35:47;;;;;;;36.35;7.57;;;;;;;;;;5090250;28;20090;-47
2023/04/30 00:38:15;;;;;;;37.60;7.75;;;;;;;;;;5072709;28;20504;-48
2023/04/30 00:40:45;;;;;;;29.17;7.47;;;;;;;;;;5090361;28;20382;-49
2023/04/30 00:43:12;;;;;;;37.00;8.30;;;;;;;;;;5072708;28;20028;-47
2023/04/30 00:45:39;;;;;;;34.03;7.40;;;;;;;;;;5091173;28;20047;-48
2023/04/30 00:48:06;;;;;;;27.23;7.88;;;;;;;;;;5090066;28;20066;-46
2023/04/30 00:50:36;;;;;;;59.97;10.50;;;;;;;;;;5088951;28;20170;-47
2023/04/30 00:53:03;;;;;;;53.92;9.35;;;;;;;;;;5089201;28;20024;-47
2023/04/30 00:55:30;;;;;;;42.40;9.93;;;;;;;;;;5071273;28;20036;-47
2023/04/30 00:57:58;;;;;;;37.05;8.40;;;;;;;;;;5090237;28;20039;-47
2023/04/30 01:00:25;;;;;;;39.42;8.35;;;;;;;;;;5090343;28;20043;-48
2023/04/30 01:02:52;;;;;;;39.05;8.55;;;;;;;;;;5090788;28;20078;-47
2023/04/30 01:05:21;;;;;;;37.78;8.75;;;;;;;;;;5091210;28;20026;-47
2023/04/30 01:07:48;;;;;;;39.47;9.60;;;;;;;;;;5090159;28;20034;-47
2023/04/30 01:10:16;;;;;;;40.67;9.57;;;;;;;;;;5089869;28;20036;-47
2023/04/30 01:13:03;;;;;;;46.60;9.38;;;;;;;;;;5089839;28;20036;-47
2023/04/30 01:15:35;;;;;;;27.80;7.95;;;;;;;;;;5089781;28;20047;-49
2023/04/30 01:18:09;;;;;;;32.20;8.35;;;;;;;;;;5088880;28;20051;-47
2023/04/30 01:20:38;;;;;;;42.88;9.23;;;;;;;;;;5089385;28;20047;-48
2023/04/30 01:23:11;;;;;;;37.40;8.55;;;;;;;;;;5088726;28;20115;-49
2023/04/30 01:25:51;;;;;;;39.88;8.63;;;;;;;;;;5088987;28;20378;-52
2023/04/30 01:28:19;;;;;;;34.83;8.55;;;;;;;;;;5088410;28;20024;-51
2023/04/30 01:30:47;;;;;;;39.92;8.52;;;;;;;;;;5089159;28;20064;-47
2023/04/30 01:33:14;;;;;;;37.65;9.50;;;;;;;;;;5089887;28;20562;-50
2023/04/30 01:35:41;;;;;;;34.42;8.02;;;;;;;;;;5090220;28;20028;-47
2023/04/30 01:38:19;;;;;;;31.30;9.23;;;;;;;;;;5093354;28;20036;-49
2023/04/30 01:41:12;;;;;;;33.90;8.68;;;;;;;;;;5093069;28;20085;-48
2023/04/30 01:43:39;;;;;;;28.35;7.55;;;;;;;;;;5055206;28;20036;-49
2023/04/30 01:46:29;;;;;;;35.45;8.30;;;;;;;;;;5093381;28;20032;-49
2023/04/30 01:49:07;;;;;;;34.50;8.45;;;;;;;;;;5083166;28;20393;-48
2023/04/30 01:51:41;;;;;;;31.30;7.88;;;;;;;;;;5093912;28;20023;-48
2023/04/30 01:54:26;;;;;;;35.90;8.68;;;;;;;;;;5093671;28;20040;-48
2023/04/30 01:57:11;;;;;;;34.47;8.05;;;;;;;;;;5093647;28;20031;-48
2023/04/30 01:59:39;;;;;;;28.73;8.32;;;;;;;;;;5093017;28;20094;-49
2023/04/30 02:02:07;;;;;;;28.77;8.15;;;;;;;;;;5093021;28;20028;-45
2023/04/30 02:04:35;;;;;;;29.85;7.90;;;;;;;;;;5093745;28;20035;-46
2023/04/30 02:07:02;;;;;;;27.20;7.25;;;;;;;;;;5092773;28;20051;-47
2023/04/30 02:09:29;;;;;;;30.55;8.32;;;;;;;;;;5075502;28;20020;-46
2023/04/30 02:11:56;;;;;;;36.42;8.35;;;;;;;;;;5093156;28;20035;-46
2023/04/30 02:14:26;;;;;;;33.08;7.78;;;;;;;;;;5074880;28;20094;-45
2023/04/30 02:16:53;;;;;;;26.77;7.60;;;;;;;;;;5093297;28;20545;-46
2023/04/30 02:19:20;;;;;;;26.27;7.47;;;;;;;;;;5093155;28;20110;-46
2023/04/30 02:21:47;;;;;;;31.50;8.20;;;;;;;;;;5092153;28;20042;-46
2023/04/30 02:24:14;;;;;;;32.05;7.93;;;;;;;;;;5092413;28;20111;-45
2023/04/30 02:26:42;;;;;;;28.50;7.78;;;;;;;;;;5092691;28;20055;-47
2023/04/30 02:29:09;;;;;;;28.17;7.78;;;;;;;;;;5092703;28;20028;-46
2023/04/30 02:31:36;;;;;;;29.55;7.72;;;;;;;;;;5092088;28;20066;-45
2023/04/30 02:34:03;;;;;;;38.70;8.32;;;;;;;;;;5070823;28;20072;-46
2023/04/30 02:36:35;;;;;;;25.77;7.53;;;;;;;;;;5071633;28;20032;-52
2023/04/30 02:39:02;;;;;;;22.02;6.93;;;;;;;;;;5087099;28;20044;-45
2023/04/30 02:41:29;;;;;;;33.88;8.45;;;;;;;;;;5073893;28;20024;-47
2023/04/30 02:43:56;;;;;;;26.70;7.07;;;;;;;;;;5092099;28;20032;-48
2023/04/30 02:46:23;;;;;;;25.40;7.53;;;;;;;;;;5074308;28;20043;-52
2023/04/30 02:48:50;;;;;;;22.27;7.35;;;;;;;;;;5091694;28;20106;-46
2023/04/30 02:51:17;;;;;;;27.15;7.65;;;;;;;;;;5091733;28;20043;-46
2023/04/30 02:53:44;;;;;;;28.60;7.00;;;;;;;;;;5091221;28;20029;-47
2023/04/30 02:56:12;;;;;;;25.33;6.78;;;;;;;;;;5073028;28;20028;-46
2023/04/30 02:58:38;;;;;;;28.42;7.63;;;;;;;;;;5091973;28;20047;-46
2023/04/30 03:01:05;;;;;;;25.77;7.95;;;;;;;;;;5092058;28;20571;-48
2023/04/30 03:03:32;;;;;;;29.50;8.05;;;;;;;;;;5074112;28;20378;-47
2023/04/30 03:06:00;;;;;;;26.02;7.10;;;;;;;;;;5092143;28;20032;-46
2023/04/30 03:08:27;;;;;;;28.00;6.55;;;;;;;;;;5092169;28;20036;-46
2023/04/30 03:10:54;;;;;;;33.25;7.38;;;;;;;;;;5092630;28;20036;-47
2023/04/30 03:13:21;;;;;;;25.30;7.40;;;;;;;;;;5092854;28;20382;-46
2023/04/30 03:15:48;;;;;;;19.02;6.45;;;;;;;;;;5092667;28;20024;-48
2023/04/30 03:18:15;;;;;;;19.80;6.30;;;;;;;;;;5092399;28;20122;-46
2023/04/30 03:20:42;;;;;;;23.50;6.93;;;;;;;;;;5078658;28;20086;-46
2023/04/30 03:23:09;;;;;;;24.75;6.80;;;;;;;;;;5092152;28;20036;-46
2023/04/30 03:25:36;;;;;;;25.90;6.63;;;;;;;;;;5092499;28;20024;-47
2023/04/30 03:28:03;;;;;;;20.65;6.38;;;;;;;;;;5092209;28;20060;-47
2023/04/30 03:30:30;;;;;;;19.67;6.53;;;;;;;;;;5092438;28;20036;-45
2023/04/30 03:32:57;;;;;;;23.85;7.13;;;;;;;;;;5090946;28;20039;-45
2023/04/30 03:35:24;;;;;;;22.35;6.65;;;;;;;;;;5091413;28;20086;-48
2023/04/30 03:37:51;;;;;;;22.92;6.75;;;;;;;;;;5091262;28;20058;-47
2023/04/30 03:40:18;;;;;;;19.92;6.68;;;;;;;;;;5091380;28;20043;-46
2023/04/30 03:42:45;;;;;;;22.40;6.35;;;;;;;;;;5091082;28;20032;-47
2023/04/30 03:45:12;;;;;;;22.27;6.32;;;;;;;;;;5091386;28;20689;-45
2023/04/30 03:47:39;;;;;;;21.77;6.53;;;;;;;;;;5091309;28;20115;-46
2023/04/30 03:50:06;;;;;;;21.25;7.28;;;;;;;;;;5091234;28;20032;-46
2023/04/30 03:52:33;;;;;;;20.05;6.78;;;;;;;;;;5091444;28;20501;-46
2023/04/30 03:55:00;;;;;;;18.88;6.07;;;;;;;;;;5091000;28;20393;-45
2023/04/30 03:57:27;;;;;;;18.70;6.25;;;;;;;;;;5090765;28;20098;-48
2023/04/30 03:59:54;;;;;;;20.98;6.10;;;;;;;;;;5089933;28;20075;-44
2023/04/30 04:02:21;;;;;;;20.85;5.90;;;;;;;;;;5090516;28;20032;-47
2023/04/30 04:04:49;;;;;;;23.73;6.53;;;;;;;;;;5090492;28;20032;-48
2023/04/30 04:07:15;;;;;;;20.45;5.97;;;;;;;;;;5091371;28;20039;-45
2023/04/30 04:09:42;;;;;;;19.60;6.55;;;;;;;;;;5090758;28;20086;-47
2023/04/30 04:12:10;;;;;;;18.98;6.28;;;;;;;;;;5091110;28;20497;-46
2023/04/30 04:14:36;;;;;;;18.60;5.90;;;;;;;;;;5090948;28;20428;-46
2023/04/30 04:17:07;;;;;;;21.33;6.00;;;;;;;;;;5090362;28;20027;-46
2023/04/30 04:19:33;;;;;;;21.25;5.38;;;;;;;;;;5090848;28;20040;-46
2023/04/30 04:22:01;;;;;;;21.80;5.63;;;;;;;;;;5089472;28;20031;-46
2023/04/30 04:24:28;;;;;;;16.67;5.50;;;;;;;;;;5090938;28;20362;-47
2023/04/30 04:26:55;;;;;;;17.30;5.97;;;;;;;;;;5090824;28;20024;-46
2023/04/30 04:29:22;;;;;;;16.85;5.57;;;;;;;;;;5089202;28;20024;-44
2023/04/30 04:31:49;;;;;;;18.63;5.43;;;;;;;;;;5089526;28;20020;-46
2023/04/30 04:34:18;;;;;;;19.00;5.57;;;;;;;;;;5088505;28;20055;-45
2023/04/30 04:36:45;;;;;;;18.15;5.90;;;;;;;;;;5078900;28;20518;-47
2023/04/30 04:39:13;;;;;;;18.83;5.82;;;;;;;;;;5090655;28;20114;-47
2023/04/30 04:41:40;;;;;;;16.77;5.97;;;;;;;;;;5090577;28;20111;-45
2023/04/30 04:44:07;;;;;;;17.60;5.10;;;;;;;;;;5079388;28;20429;-45
2023/04/30 04:46:37;;;;;;;20.75;5.40;;;;;;;;;;5088004;28;20031;-45
2023/04/30 04:49:04;;;;;;;16.60;5.68;;;;;;;;;;5089264;28;20056;-46
2023/04/30 04:51:31;;;;;;;14.00;5.18;;;;;;;;;;5089949;28;20032;-47
2023/04/30 04:53:58;;;;;;;10.55;4.70;;;;;;;;;;5090801;28;20162;-45
2023/04/30 04:56:25;;;;;;;14.48;4.85;;;;;;;;;;5090895;28;20541;-45
2023/04/30 04:58:52;;;;;;;13.52;4.97;;;;;;;;;;5073161;28;20150;-47
2023/04/30 05:01:20;;;;;;;15.20;5.20;;;;;;;;;;5090546;28;20048;-44
2023/04/30 05:03:47;;;;;;;17.77;4.80;;;;;;;;;;5090806;28;20051;-48
2023/04/30 05:06:15;;;;;;;13.73;4.97;;;;;;;;;;5090502;28;20134;-45
2023/04/30 05:08:41;;;;;;;16.15;4.95;;;;;;;;;;5075156;28;20513;-46
2023/04/30 05:11:09;;;;;;;20.08;4.32;;;;;;;;;;5071684;28;20056;-45
2023/04/30 05:13:36;;;;;;;14.75;4.40;;;;;;;;;;5057291;28;20480;-43
2023/04/30 05:16:03;;;;;;;16.10;4.90;;;;;;;;;;5036959;28;20028;-44
2023/04/30 05:18:30;;;;;;;15.05;5.13;;;;;;;;;;5054322;28;20048;-44
2023/04/30 05:20:57;;;;;;;23.73;6.65;;;;;;;;;;5060447;28;20025;-46
2023/04/30 05:23:24;;;;;;;26.15;7.43;;;;;;;;;;5065720;28;20028;-44
2023/04/30 05:25:54;;;;;;;20.25;6.55;;;;;;;;;;5058383;28;20468;-45
2023/04/30 05:28:21;;;;;;;26.08;7.85;;;;;;;;;;5048668;28;20479;-44
2023/04/30 05:30:48;;;;;;;20.88;5.97;;;;;;;;;;5045326;28;20024;-44
2023/04/30 05:33:15;;;;;;;24.13;6.70;;;;;;;;;;5059793;28;20406;-44
2023/04/30 05:35:42;;;;;;;28.08;7.47;;;;;;;;;;5062830;28;20020;-44
2023/04/30 05:38:09;;;;;;;22.05;6.40;;;;;;;;;;5064839;28;20040;-44
2023/04/30 05:40:36;;;;;;;19.38;6.93;;;;;;;;;;5064165;28;20104;-44
2023/04/30 05:43:03;;;;;;;23.90;6.43;;;;;;;;;;5074621;28;20036;-44
2023/04/30 05:45:30;;;;;;;20.67;6.43;;;;;;;;;;5074083;28;20487;-44
2023/04/30 05:47:57;;;;;;;26.15;7.10;;;;;;;;;;5074150;28;20448;-44
2023/04/30 05:50:24;;;;;;;20.20;7.32;;;;;;;;;;5074448;28;20032;-44
2023/04/30 05:52:51;;;;;;;23.27;7.28;;;;;;;;;;5074479;28;20031;-44
2023/04/30 05:55:18;;;;;;;19.65;6.80;;;;;;;;;;5074406;28;20057;-44
2023/04/30 05:57:45;;;;;;;19.73;7.15;;;;;;;;;;5074235;28;20112;-44
2023/04/30 06:00:12;;;;;;;16.40;6.28;;;;;;;;;;5073760;28;20041;-45
2023/04/30 06:02:40;;;;;;;13.68;6.05;;;;;;;;;;5056353;28;20112;-44
2023/04/30 06:05:08;;;;;;;19.63;6.22;;;;;;;;;;5053830;28;20029;-44
2023/04/30 06:07:35;;;;;;;20.13;6.93;;;;;;;;;;5053809;28;20029;-44
2023/04/30 06:10:03;;;;;;;22.00;6.43;;;;;;;;;;5053994;28;20021;-44
2023/04/30 06:12:30;;;;;;;12.88;5.47;;;;;;;;;;5053549;28;20037;-44
2023/04/30 06:14:57;;;;;;;18.33;6.22;;;;;;;;;;5053865;28;20036;-44
2023/04/30 06:17:24;;;;;;;20.45;5.70;;;;;;;;;;5053871;28;20032;-44
2023/04/30 06:19:51;;;;;;;20.27;6.60;;;;;;;;;;5053758;28;20045;-44
2023/04/30 06:22:18;;;;;;;22.33;6.78;;;;;;;;;;5052666;28;20036;-44
2023/04/30 06:24:45;;;;;;;20.20;6.38;;;;;;;;;;5053528;28;20024;-44
2023/04/30 06:27:12;;;;;;;16.45;6.65;;;;;;;;;;5053361;28;20119;-44
2023/04/30 06:29:39;;;;;;;19.88;6.70;;;;;;;;;;5053637;28;20383;-44
2023/04/30 06:32:06;;;;;;;20.27;5.88;;;;;;;;;;5053685;28;20123;-44
2023/04/30 06:34:33;;;;;;;22.65;6.88;;;;;;;;;;5053525;28;20372;-44
2023/04/30 06:37:00;;;;;;;18.23;6.70;;;;;;;;;;5053457;28;20108;-44
2023/04/30 06:39:27;;;;;;;15.52;5.65;;;;;;;;;;5053459;28;20372;-45
2023/04/30 06:41:54;;;;;;;17.20;5.90;;;;;;;;;;5053403;28;20032;-45
2023/04/30 06:44:21;;;;;;;16.95;5.75;;;;;;;;;;5053330;28;20025;-44
2023/04/30 06:46:48;;;;;;;18.75;5.40;;;;;;;;;;5053288;28;20028;-44
2023/04/30 06:49:15;;;;;;;18.23;5.57;;;;;;;;;;5053126;28;20024;-44
2023/04/30 06:51:41;;;;;;;16.02;5.25;;;;;;;;;;5053207;28;20065;-45
2023/04/30 06:54:09;;;;;;;21.02;5.40;;;;;;;;;;5053272;28;20100;-44
2023/04/30 06:56:36;;;;;;;20.85;5.65;;;;;;;;;;5052968;28;20036;-44
2023/04/30 06:59:03;;;;;;;18.80;5.60;;;;;;;;;;5052923;28;20037;-44
2023/04/30 07:01:30;;;;;;;14.93;5.10;;;;;;;;;;5052767;28;20047;-44
2023/04/30 07:03:57;;;;;;;22.50;5.82;;;;;;;;;;5053139;28;20035;-44
2023/04/30 07:06:24;;;;;;;18.00;5.25;;;;;;;;;;5034980;28;20025;-45
2023/04/30 07:08:51;;;;;;;21.58;5.10;;;;;;;;;;5052816;28;20044;-44
2023/04/30 07:11:18;;;;;;;20.40;5.15;;;;;;;;;;5052831;28;20056;-44
2023/04/30 07:13:45;;;;;;;15.88;4.68;;;;;;;;;;5052704;28;20056;-44
2023/04/30 07:16:13;;;;;;;19.63;5.07;;;;;;;;;;5052674;28;20109;-44
2023/04/30 07:18:40;;;;;;;22.30;5.18;;;;;;;;;;5052552;28;20037;-44
2023/04/30 07:21:07;;;;;;;16.85;5.40;;;;;;;;;;5052756;28;20029;-44
2023/04/30 07:23:35;;;;;;;20.58;5.20;;;;;;;;;;5052452;28;20033;-44
2023/04/30 07:26:01;;;;;;;17.33;4.68;;;;;;;;;;5052453;28;20029;-44
2023/04/30 07:28:28;;;;;;;15.20;5.10;;;;;;;;;;5052582;28;20052;-46
2023/04/30 07:30:55;;;;;;;14.95;4.47;;;;;;;;;;5052450;28;20025;-44
2023/04/30 07:33:22;;;;;;;16.27;4.35;;;;;;;;;;5051953;28;20029;-44
2023/04/30 07:35:51;;;;;;;18.02;4.70;;;;;;;;;;5052455;28;20438;-44
2023/04/30 07:38:18;;;;;;;24.45;5.03;;;;;;;;;;5034305;28;20450;-45
2023/04/30 07:40:45;;;;;;;16.65;4.40;;;;;;;;;;5052274;28;20539;-44
2023/04/30 07:43:12;;;;;;;25.08;4.70;;;;;;;;;;5052297;28;20025;-44
2023/04/30 07:45:39;;;;;;;12.52;4.10;;;;;;;;;;5052263;28;20028;-44
2023/04/30 07:48:06;;;;;;;17.73;4.80;;;;;;;;;;5051925;28;20025;-44
2023/04/30 07:50:33;;;;;;;17.42;5.35;;;;;;;;;;5052084;28;20647;-44
2023/04/30 07:53:01;;;;;;;13.95;4.03;;;;;;;;;;5052207;28;20486;-44
2023/04/30 07:55:28;;;;;;;18.75;4.10;;;;;;;;;;5051921;28;20021;-45
2023/04/30 07:57:55;;;;;;;27.05;4.97;;;;;;;;;;5051762;28;20029;-44
2023/04/30 08:00:22;;;;;;;18.00;4.25;;;;;;;;;;5051759;28;20123;-44
2023/04/30 08:02:49;;;;;;;16.05;4.38;;;;;;;;;;5051886;28;20100;-45
2023/04/30 08:05:16;;;;;;;17.73;4.20;;;;;;;;;;5051947;28;20426;-44
2023/04/30 08:07:43;;;;;;;12.57;3.78;;;;;;;;;;5051615;28;20407;-44
2023/04/30 08:10:10;;;;;;;15.85;3.63;;;;;;;;;;5033824;28;20544;-44
2023/04/30 08:12:37;;;;;;;14.35;3.92;;;;;;;;;;5051621;28;20032;-45
2023/04/30 08:15:05;;;;;;;15.65;3.67;;;;;;;;;;5051902;28;20031;-44
2023/04/30 08:17:32;;;;;;;23.33;4.15;;;;;;;;;;5051682;28;20483;-44
2023/04/30 08:20:00;;;;;;;21.08;3.42;;;;;;;;;;5051611;28;20048;-44
2023/04/30 08:22:27;;;;;;;19.58;3.90;;;;;;;;;;5051474;28;20087;-44
2023/04/30 08:24:54;;;;;;;24.27;3.92;;;;;;;;;;5051679;28;20028;-44
2023/04/30 08:27:22;;;;;;;24.65;3.95;;;;;;;;;;5051575;28;20079;-44
2023/04/30 08:29:49;;;;;;;22.80;3.92;;;;;;;;;;5051688;28;20099;-44
2023/04/30 08:32:16;;;;;;;20.83;3.58;;;;;;;;;;5051343;28;20017;-44
2023/04/30 08:34:42;;;;;;;26.95;3.60;;;;;;;;;;5051442;28;20033;-45
2023/04/30 08:37:10;;;;;;;24.50;3.50;;;;;;;;;;5051481;28;20025;-45
2023/04/30 08:39:36;;;;;;;15.77;3.78;;;;;;;;;;5051216;28;20060;-44
2023/04/30 08:42:08;;;;;;;17.27;3.50;;;;;;;;;;5051487;28;20016;-44
2023/04/30 08:44:42;;;;;;;39.20;4.37;;;;;;;;;;5051198;28;20099;-44
2023/04/30 08:47:14;;;;;;;34.00;3.80;;;;;;;;;;5050418;28;20021;-44
2023/04/30 08:49:41;;;;;;;36.13;4.72;;;;;;;;;;5051328;28;20515;-45
2023/04/30 08:52:08;;;;;;;27.88;4.32;;;;;;;;;;5051295;28;20029;-44
2023/04/30 08:54:38;;;;;;;47.47;4.75;;;;;;;;;;5051257;28;20510;-44
2023/04/30 08:57:06;;;;;;;45.40;4.47;;;;;;;;;;5051255;28;20048;-44
2023/04/30 08:59:33;;;;;;;30.08;3.80;;;;;;;;;;5052292;28;20065;-44
2023/04/30 09:02:03;;;;;;;35.33;4.03;;;;;;;;;;5071244;28;20041;-46
2023/04/30 09:04:30;;;;;;;22.13;3.58;;;;;;;;;;5071070;28;20483;-46
2023/04/30 09:07:00;;;;;;;29.25;4.03;;;;;;;;;;5071194;28;20489;-44
2023/04/30 09:09:30;;;;;;;22.88;3.17;;;;;;;;;;5071337;28;20028;-44
2023/04/30 09:12:21;;;;;;;25.50;3.85;;;;;;;;;;5071013;28;20048;-44
2023/04/30 09:15:02;;;;;;;19.70;3.20;;;;;;;;;;5071019;28;20499;-44
2023/04/30 09:17:29;;;;;;;58.00;5.30;;;;;;;;;;5071048;28;20019;-44
2023/04/30 09:20:07;;;;;;;53.10;4.85;;;;;;;;;;5070954;28;20103;-44
2023/04/30 09:22:35;;;;;;;37.60;4.10;;;;;;;;;;5070966;28;20021;-45
2023/04/30 09:25:02;;;;;;;31.48;3.72;;;;;;;;;;5070963;28;20382;-44
2023/04/30 09:27:29;;;;;;;26.35;3.33;;;;;;;;;;5070994;28;20036;-44
2023/04/30 09:29:56;;;;;;;30.85;3.78;;;;;;;;;;5071040;28;20066;-44
2023/04/30 09:32:23;;;;;;;25.13;3.35;;;;;;;;;;5071013;28;20044;-44
2023/04/30 09:34:50;;;;;;;27.90;3.88;;;;;;;;;;5070856;28;20031;-44
2023/04/30 09:37:17;;;;;;;21.77;3.05;;;;;;;;;;5071109;28;20184;-44
2023/04/30 09:39:48;;;;;;;25.55;3.22;;;;;;;;;;5070752;28;20041;-44
2023/04/30 09:42:15;;;;;;;40.83;3.80;;;;;;;;;;5071138;28;20363;-44
2023/04/30 09:44:42;;;;;;;32.30;3.47;;;;;;;;;;5070733;28;20024;-44
2023/04/30 09:47:13;;;;;;;37.13;3.88;;;;;;;;;;5070853;28;20048;-44
2023/04/30 09:49:52;;;;;;;36.53;3.95;;;;;;;;;;5070908;28;20390;-44
2023/04/30 09:52:20;;;;;;;49.85;3.75;;;;;;;;;;5070929;28;20060;-44
2023/04/30 09:54:47;;;;;;;36.05;3.80;;;;;;;;;;5070572;28;20035;-45
2023/04/30 09:57:14;;;;;;;36.75;3.22;;;;;;;;;;5072034;28;20021;-45
2023/04/30 09:59:45;;;;;;;41.20;3.70;;;;;;;;;;5074112;28;20063;-44
2023/04/30 10:02:14;;;;;;;33.83;3.20;;;;;;;;;;5074260;28;20035;-44
2023/04/30 10:04:44;;;;;;;28.92;3.25;;;;;;;;;;5074268;28;20016;-45
2023/04/30 10:07:11;;;;;;;29.85;3.75;;;;;;;;;;5073937;28;20504;-44
2023/04/30 10:09:48;;;;;;;21.58;2.53;;;;;;;;;;5073950;28;20040;-45
2023/04/30 10:12:15;;;;;;;29.63;3.45;;;;;;;;;;5074147;28;20028;-44
2023/04/30 10:14:45;;;;;;;34.60;3.58;;;;;;;;;;5074097;28;20040;-45
2023/04/30 10:17:14;;;;;;;26.52;3.03;;;;;;;;;;5074004;28;20558;-45
2023/04/30 10:19:44;;;;;;;19.50;2.80;;;;;;;;;;5073838;28;20036;-44
2023/04/30 10:22:11;;;;;;;25.83;3.40;;;;;;;;;;5073775;28;20025;-44
2023/04/30 10:24:38;;;;;;;30.13;2.88;;;;;;;;;;5074007;28;20028;-44
2023/04/30 10:27:05;;;;;;;24.63;2.80;;;;;;;;;;5073638;28;20025;-44
2023/04/30 10:29:32;;;;;;;16.25;3.17;;;;;;;;;;5073815;28;20024;-44
2023/04/30 10:32:00;;;;;;;19.02;2.78;;;;;;;;;;5073806;28;20103;-44
2023/04/30 10:34:36;;;;;;;17.05;2.28;;;;;;;;;;5073840;28;20064;-44
2023/04/30 10:37:09;;;;;;;25.55;2.53;;;;;;;;;;5073678;28;20033;-45
2023/04/30 10:39:37;;;;;;;14.48;2.50;;;;;;;;;;5073604;28;20032;-44
2023/04/30 10:42:10;;;;;;;24.25;2.55;;;;;;;;;;5073594;28;20390;-44
2023/04/30 10:44:37;;;;;;;16.88;2.50;;;;;;;;;;5073578;28;20028;-44
2023/04/30 10:47:05;;;;;;;27.60;3.50;;;;;;;;;;5073305;28;20029;-45
2023/04/30 10:49:32;;;;;;;10.65;1.95;;;;;;;;;;5073483;28;20024;-46
2023/04/30 10:52:00;;;;;;;17.77;2.28;;;;;;;;;;5073488;28;20107;-45
2023/04/30 10:54:28;;;;;;;10.38;1.75;;;;;;;;;;5073392;28;20078;-44
2023/04/30 10:57:12;;;;;;;15.68;2.33;;;;;;;;;;5073527;28;20067;-45
2023/04/30 10:59:46;;;;;;;16.42;2.58;;;;;;;;;;5072803;28;20112;-45
2023/04/30 11:02:16;;;;;;;15.13;2.10;;;;;;;;;;5073257;28;20123;-44
2023/04/30 11:05:01;;;;;;;18.02;2.33;;;;;;;;;;5073064;28;20104;-45
2023/04/30 11:07:28;;;;;;;11.93;2.15;;;;;;;;;;5072910;28;20103;-44
2023/04/30 11:09:57;;;;;;;9.73;1.85;;;;;;;;;;5072467;28;20556;-44
2023/04/30 11:12:29;;;;;;;11.43;1.58;;;;;;;;;;5073074;28;20020;-44
2023/04/30 11:15:22;;;;;;;13.30;1.80;;;;;;;;;;5072904;28;20487;-44
2023/04/30 11:17:49;;;;;;;9.50;1.80;;;;;;;;;;5068581;28;20040;-45
2023/04/30 11:20:20;;;;;;;8.30;1.55;;;;;;;;;;5072932;28;20098;-45
2023/04/30 11:22:47;;;;;;;15.52;1.80;;;;;;;;;;5072808;28;20039;-44
2023/04/30 11:25:23;;;;;;;8.23;1.52;;;;;;;;;;5072612;28;20410;-44
2023/04/30 11:27:51;;;;;;;8.50;1.35;;;;;;;;;;5072657;28;20037;-44
2023/04/30 11:30:19;;;;;;;7.35;1.65;;;;;;;;;;5072756;28;20051;-45
2023/04/30 11:32:47;;;;;;;14.50;1.52;;;;;;;;;;5072389;28;20024;-46
2023/04/30 11:35:14;;;;;;;9.45;1.42;;;;;;;;;;5072596;28;20553;-44
2023/04/30 11:37:43;;;;;;;8.65;1.80;;;;;;;;;;5072468;28;20048;-44
2023/04/30 11:40:11;;;;;;;10.63;1.65;;;;;;;;;;5072406;28;20040;-45
2023/04/30 11:42:39;;;;;;;5.40;1.50;;;;;;;;;;5072210;28;20021;-44
2023/04/30 11:45:10;;;;;;;8.60;1.30;;;;;;;;;;5072140;28;20028;-44
2023/04/30 11:47:45;;;;;;;9.95;1.48;;;;;;;;;;5072102;28;20036;-44
2023/04/30 11:50:13;;;;;;;6.65;1.05;;;;;;;;;;5072342;28;20081;-44
2023/04/30 11:52:42;;;;;;;9.88;1.75;;;;;;;;;;5072196;28;20025;-44
2023/04/30 11:55:19;;;;;;;6.30;1.02;;;;;;;;;;5072024;28;20028;-45
2023/04/30 11:57:48;;;;;;;5.15;1.15;;;;;;;;;;5071984;28;20491;-44
2023/04/30 12:00:16;;;;;;;7.90;1.30;;;;;;;;;;5071845;28;20537;-44
2023/04/30 12:02:44;;;;;;;6.30;1.60;;;;;;;;;;5072158;28;20153;-44
2023/04/30 12:05:18;;;;;;;6.95;1.50;;;;;;;;;;5071829;28;20064;-44
2023/04/30 12:08:05;;;;;;;4.95;1.25;;;;;;;;;;5071684;28;20028;-45
2023/04/30 12:10:32;;;;;;;5.38;1.27;;;;;;;;;;5071812;28;20452;-45
2023/04/30 12:12:59;;;;;;;7.63;1.02;;;;;;;;;;5071699;28;20032;-44
2023/04/30 12:15:27;;;;;;;5.68;1.63;;;;;;;;;;5071990;28;20458;-44
2023/04/30 12:17:59;;;;;;;7.32;1.30;;;;;;;;;;5071421;28;20440;-45
2023/04/30 12:20:28;;;;;;;3.83;1.10;;;;;;;;;;5071011;28;20103;-45
2023/04/30 12:22:55;;;;;;;5.20;1.00;;;;;;;;;;5071801;28;20105;-45
2023/04/30 12:25:22;;;;;;;5.07;1.20;;;;;;;;;;5071722;28;20021;-44
2023/04/30 12:27:50;;;;;;;4.55;1.27;;;;;;;;;;5071677;28;20059;-45
2023/04/30 12:30:20;;;;;;;5.30;1.17;;;;;;;;;;5071640;28;20020;-44
2023/04/30 12:32:49;;;;;;;4.50;1.00;;;;;;;;;;5071744;28;20024;-44
2023/04/30 12:35:18;;;;;;;3.90;0.90;;;;;;;;;;5071714;28;20037;-44
2023/04/30 12:37:46;;;;;;;3.58;0.80;;;;;;;;;;5071576;28;20108;-44
2023/04/30 12:40:13;;;;;;;7.38;1.10;;;;;;;;;;5071575;28;20558;-44
2023/04/30 12:42:44;;;;;;;4.22;1.00;;;;;;;;;;5071378;28;20115;-44
2023/04/30 12:45:11;;;;;;;7.85;1.17;;;;;;;;;;5071496;28;20116;-46
2023/04/30 12:47:42;;;;;;;4.47;0.85;;;;;;;;;;5071351;28;20068;-44
2023/04/30 12:50:12;;;;;;;4.97;1.00;;;;;;;;;;5071486;28;20029;-44
2023/04/30 12:52:39;;;;;;;3.53;0.85;;;;;;;;;;5071471;28;20074;-44
2023/04/30 12:55:17;;;;;;;2.17;0.68;;;;;;;;;;5071346;28;20078;-44
2023/04/30 12:58:03;;;;;;;2.53;0.93;;;;;;;;;;5071244;28;20394;-44
2023/04/30 13:00:42;;;;;;;2.72;0.80;;;;;;;;;;5070979;28;20147;-44
2023/04/30 13:03:09;;;;;;;4.00;0.98;;;;;;;;;;5071409;28;20394;-44
2023/04/30 13:05:36;;;;;;;3.70;0.93;;;;;;;;;;5071286;28;20566;-44
2023/04/30 13:08:06;;;;;;;3.40;0.93;;;;;;;;;;5071380;28;20032;-44
2023/04/30 13:10:33;;;;;;;2.95;0.90;;;;;;;;;;5071261;28;20032;-44
2023/04/30 13:13:00;;;;;;;4.25;1.10;;;;;;;;;;5071195;28;20411;-44
2023/04/30 13:15:27;;;;;;;2.05;0.70;;;;;;;;;;5071236;28;20078;-44
2023/04/30 13:17:54;;;;;;;3.95;0.77;;;;;;;;;;5071204;28;20617;-45
2023/04/30 13:20:23;;;;;;;3.63;0.70;;;;;;;;;;5071290;28;20035;-45
2023/04/30 13:22:51;;;;;;;3.40;0.85;;;;;;;;;;5065572;28;20399;-44
2023/04/30 13:25:17;;;;;;;2.42;0.85;;;;;;;;;;5049997;28;20033;-45
2023/04/30 13:27:44;;;;;;;3.28;0.80;;;;;;;;;;5058938;28;20087;-44
2023/04/30 13:30:12;;;;;;;2.92;0.82;;;;;;;;;;5060755;28;20103;-45
2023/04/30 13:32:39;;;;;;;3.28;0.73;;;;;;;;;;5061105;28;20028;-44
2023/04/30 13:35:06;;;;;;;4.22;1.08;;;;;;;;;;5057878;28;20043;-45
2023/04/30 13:37:34;;;;;;;2.85;1.02;;;;;;;;;;5053256;28;20032;-47
2023/04/30 13:40:02;;;;;;;11.27;1.92;;;;;;;;;;5061815;28;20043;-45
2023/04/30 13:42:29;;;;;;;9.68;2.40;;;;;;;;;;5062509;28;20455;-44
2023/04/30 13:44:56;;;;;;;10.32;2.20;;;;;;;;;;5064942;28;20032;-45
2023/04/30 13:47:23;;;;;;;19.13;2.70;;;;;;;;;;5062864;28;20029;-45
2023/04/30 13:49:50;;;;;;;13.50;2.88;;;;;;;;;;5064020;28;20040;-47
2023/04/30 13:52:17;;;;;;;12.27;2.85;;;;;;;;;;5055196;28;20028;-45
2023/04/30 13:54:44;;;;;;;16.95;2.78;;;;;;;;;;5062026;28;20118;-44
2023/04/30 13:57:11;;;;;;;16.17;3.22;;;;;;;;;;5063557;28;20137;-44
2023/04/30 13:59:38;;;;;;;10.32;2.42;;;;;;;;;;5062441;28;20041;-45
2023/04/30 14:02:05;;;;;;;9.40;2.08;;;;;;;;;;5053511;28;20040;-44
2023/04/30 14:04:32;;;;;;;9.55;2.55;;;;;;;;;;5045341;28;20095;-44
2023/04/30 14:06:59;;;;;;;8.52;2.10;;;;;;;;;;5034777;28;20383;-44
2023/04/30 14:09:26;;;;;;;9.77;2.63;;;;;;;;;;5034103;28;20033;-44
2023/04/30 14:11:55;;;;;;;11.43;2.13;;;;;;;;;;5034094;28;20035;-45
2023/04/30 14:14:22;;;;;;;15.48;3.30;;;;;;;;;;5036746;28;20503;-45
2023/04/30 14:16:49;;;;;;;16.80;7.60;;;;;;;;;;5048530;28;20033;-44
2023/04/30 14:19:16;;;;;;;16.05;9.15;;;;;;;;;;5053289;28;20029;-45
2023/04/30 14:21:42;;;;;;;23.23;13.52;;;;;;;;;;5053636;28;20025;-44
2023/04/30 14:24:11;;;;;;;23.20;12.70;;;;;;;;;;5053387;28;20050;-44
2023/04/30 14:26:41;;;;;;;20.13;11.10;;;;;;;;;;5053279;28;20035;-44
2023/04/30 14:29:08;;;;;;;18.67;10.20;;;;;;;;;;5053226;28;20025;-45
2023/04/30 14:31:35;;;;;;;17.85;10.23;;;;;;;;;;5052988;28;20040;-44
2023/04/30 14:34:03;;;;;;;19.25;9.77;;;;;;;;;;5053305;28;20033;-46
2023/04/30 14:36:30;;;;;;;19.27;9.95;;;;;;;;;;5052996;28;20056;-45
2023/04/30 14:38:57;;;;;;;15.95;10.05;;;;;;;;;;5052098;28;20796;-45